Dzuunmod, Mongolia
Current Conditions -  °F | °C
As of 3:00 PM on Friday 19 Dec 2014 (Local Time) from ZMUB Reporting Station
Clear Clear  
Wind Chill: -4°   Ceiling: Unl
Heat Index:   Visibility: 6mi
Dew Point: -6°   Wind: 4mph
Humidity: 61%   Direction: 200°SSW
Pressure: 30.24"   Gusts: NA
Location:  47.71°N, 106.95°E
Report Text: ZMUB 190700Z 20002MPS CAVOK M15/M21 Q1024 NOSIG RMK QFE660.2 57
Loading
Personal Weather Stations






























Interactive Weather Map New forecast layout! Learn more

10-Day Weather Forecast

Advertisements
Track Severe Weather on mobile